Time;durP1;ratioP1;P1;durP2;ratioP2;P2;SDS_P1;SDS_P2;PMS_P1;PMS_P2;Temp;Humidity;BMP_temperature;BMP_pressure;BME280_temperature;BME280_humidity;BME280_pressure;Samples;Min_cycle;Max_cycle;Signal;HPM_P1;HPM_P2
2023/09/13 00:00:15;;;;;;;;;;;;;;;16.21;54.16;101086.78;5062071;28;1154;-63
2023/09/13 00:02:40;;;;;;;;;;;;;;;16.12;54.13;101093.81;5066421;28;1109;-64
2023/09/13 00:05:06;;;;;;;;;;;;;;;16.18;54.49;101095.53;5071288;28;1126;-63
2023/09/13 00:07:31;;;;;;;;;;;;;;;17.39;55.26;101098.38;5066157;28;1913;-64
2023/09/13 00:09:57;;;;;;;;;;;;;;;16.94;55.68;101097.09;5077370;28;1066;-62
2023/09/13 00:12:23;;;;;;;;;;;;;;;16.66;55.69;101096.41;5068391;28;1485;-63
2023/09/13 00:14:48;;;;;;;;;;;;;;;16.47;55.39;101089.69;5071680;28;1030;-62
2023/09/13 00:17:14;;;;;;;;;;;;;;;16.35;55.15;101093.44;5065873;28;2409;-62
2023/09/13 00:19:39;;;;;;;;;;;;;;;16.30;54.69;101087.94;5077330;28;1075;-63
2023/09/13 00:22:05;;;;;;;;;;;;;;;16.27;54.70;101088.47;5076973;28;1043;-62
2023/09/13 00:24:30;;;;;;;;;;;;;;;16.25;54.29;101087.91;5062401;28;1201;-63
2023/09/13 00:26:56;;;;;;;;;;;;;;;16.73;55.34;101091.50;5064478;28;1918;-63
2023/09/13 00:29:21;;;;;;;;;;;;;;;17.36;55.20;101089.81;5072360;28;1071;-64
2023/09/13 00:31:47;;;;;;;;;;;;;;;16.81;55.85;101092.06;5068798;28;1011;-63
2023/09/13 00:34:12;;;;;;;;;;;;;;;16.57;55.53;101095.25;5070886;28;1051;-63
2023/09/13 00:36:38;;;;;;;;;;;;;;;16.47;55.35;101086.97;5057609;28;1051;-62
2023/09/13 00:39:04;;;;;;;;;;;;;;;16.42;54.93;101093.22;5070987;28;1031;-64
2023/09/13 00:41:32;;;;;;;;;;;;;;;16.30;54.96;101090.69;5069049;28;1026;-63
2023/09/13 00:43:59;;;;;;;;;;;;;;;16.24;54.38;101094.47;5039830;28;1083;-63
2023/09/13 00:46:24;;;;;;;;;;;;;;;16.17;54.53;101093.88;5050618;28;1902;-63
2023/09/13 00:48:50;;;;;;;;;;;;;;;17.26;55.70;101094.22;5069836;28;2553;-64
2023/09/13 00:51:16;;;;;;;;;;;;;;;17.14;55.52;101095.53;5058539;28;839;-64
2023/09/13 00:53:42;;;;;;;;;;;;;;;16.75;55.63;101096.72;5069889;28;1454;-64
2023/09/13 00:56:08;;;;;;;;;;;;;;;16.53;55.57;101094.13;5047278;28;1110;-64
2023/09/13 00:58:34;;;;;;;;;;;;;;;16.48;54.97;101088.59;5062933;28;999;-64
2023/09/13 01:01:00;;;;;;;;;;;;;;;16.40;55.07;101089.94;5058749;28;1099;-64
2023/09/13 01:03:25;;;;;;;;;;;;;;;16.30;54.96;101084.34;5063985;28;1111;-64
2023/09/13 01:05:54;;;;;;;;;;;;;;;17.00;55.78;101087.78;5050381;28;1597;-67
2023/09/13 01:08:20;;;;;;;;;;;;;;;17.19;55.54;101079.88;5070013;28;1975;-65
2023/09/13 01:10:46;;;;;;;;;;;;;;;16.73;55.93;101083.25;5047516;28;1059;-65
2023/09/13 01:13:12;;;;;;;;;;;;;;;16.65;55.26;101081.00;5075941;28;1027;-65
2023/09/13 01:15:39;;;;;;;;;;;;;;;16.52;55.23;101079.59;5071161;28;1140;-65
2023/09/13 01:18:08;;;;;;;;;;;;;;;16.43;54.80;101084.72;5051656;28;2255;-62
2023/09/13 01:20:42;;;;;;;;;;;;;;;16.42;54.57;101083.09;5076276;28;998;-61
2023/09/13 01:23:16;;;;;;;;;;;;;;;16.29;54.47;101086.28;5076040;28;1046;-62
2023/09/13 01:25:59;;;;;;;;;;;;;;;16.25;54.28;101079.66;5058223;28;1090;-61
2023/09/13 01:28:25;;;;;;;;;;;;;;;16.12;54.45;101072.72;5072610;28;1970;-62
2023/09/13 01:30:50;;;;;;;;;;;;;;;17.23;55.63;101078.25;5044586;28;1214;-61
2023/09/13 01:33:16;;;;;;;;;;;;;;;16.94;55.66;101080.63;5050951;28;1107;-61
2023/09/13 01:35:41;;;;;;;;;;;;;;;16.58;55.89;101075.75;5056389;28;991;-62
2023/09/13 01:38:06;;;;;;;;;;;;;;;16.52;55.35;101082.31;5062704;28;1174;-62
2023/09/13 01:40:32;;;;;;;;;;;;;;;16.40;55.04;101079.75;5053966;28;1107;-62
2023/09/13 01:42:58;;;;;;;;;;;;;;;16.40;54.94;101077.03;5034521;28;1437;-62
2023/09/13 01:45:24;;;;;;;;;;;;;;;16.30;54.66;101076.97;5050984;28;1011;-62
2023/09/13 01:47:49;;;;;;;;;;;;;;;16.23;54.52;101076.38;5056186;28;1995;-62
2023/09/13 01:50:15;;;;;;;;;;;;;;;17.24;55.53;101073.59;5037409;28;996;-63
2023/09/13 01:52:40;;;;;;;;;;;;;;;17.07;55.68;101077.38;5056806;28;1090;-64
2023/09/13 01:55:06;;;;;;;;;;;;;;;16.69;55.60;101071.16;5062719;28;1117;-65
2023/09/13 01:57:32;;;;;;;;;;;;;;;16.56;55.42;101072.47;5044037;28;1052;-64
2023/09/13 01:59:58;;;;;;;;;;;;;;;16.43;55.02;101073.75;5044897;28;1237;-64
2023/09/13 02:02:23;;;;;;;;;;;;;;;16.34;55.01;101064.38;5057586;28;1199;-64
2023/09/13 02:04:49;;;;;;;;;;;;;;;16.36;54.64;101073.16;5064926;28;1123;-65
2023/09/13 02:07:16;;;;;;;;;;;;;;;16.26;54.57;101067.59;5062380;28;1914;-64
2023/09/13 02:09:42;;;;;;;;;;;;;;;16.38;55.27;101068.25;5062049;28;1127;-65
2023/09/13 02:12:12;;;;;;;;;;;;;;;17.39;55.33;101073.63;5062974;28;1087;-65
2023/09/13 02:14:38;;;;;;;;;;;;;;;16.83;55.82;101065.16;5074585;28;1126;-64
2023/09/13 02:17:04;;;;;;;;;;;;;;;16.63;55.48;101072.19;5041346;28;1891;-64
2023/09/13 02:19:29;;;;;;;;;;;;;;;16.39;55.39;101072.63;5069092;28;988;-65
2023/09/13 02:21:55;;;;;;;;;;;;;;;16.47;55.01;101073.22;5044907;28;1318;-65
2023/09/13 02:24:20;;;;;;;;;;;;;;;16.35;54.57;101065.19;5056483;28;1399;-64
2023/09/13 02:26:46;;;;;;;;;;;;;;;16.24;54.45;101064.28;5063004;28;1983;-64
2023/09/13 02:29:11;;;;;;;;;;;;;;;17.27;55.44;101071.09;5062993;28;1027;-65
2023/09/13 02:31:38;;;;;;;;;;;;;;;17.19;55.62;101066.13;5075565;28;1173;-63
2023/09/13 02:34:04;;;;;;;;;;;;;;;16.71;55.60;101063.47;5061624;28;1046;-64
2023/09/13 02:36:29;;;;;;;;;;;;;;;16.63;55.44;101065.91;5062113;28;1048;-64
2023/09/13 02:38:57;;;;;;;;;;;;;;;16.47;55.43;101068.56;5045288;28;1214;-64
2023/09/13 02:41:23;;;;;;;;;;;;;;;16.38;54.81;101062.75;5053441;28;1135;-65
2023/09/13 02:43:48;;;;;;;;;;;;;;;16.35;54.57;101066.00;5066038;28;995;-63
2023/09/13 02:46:14;;;;;;;;;;;;;;;16.30;54.47;101066.00;5041307;28;1079;-66
2023/09/13 02:48:39;;;;;;;;;;;;;;;16.19;54.45;101061.53;5040919;28;2156;-63
2023/09/13 02:51:05;;;;;;;;;;;;;;;16.81;55.58;101067.34;5078811;28;1205;-64
2023/09/13 02:53:31;;;;;;;;;;;;;;;17.38;55.35;101069.22;5078795;28;1329;-65
2023/09/13 02:56:03;;;;;;;;;;;;;;;16.84;55.83;101066.81;5072599;28;1123;-65
2023/09/13 02:58:29;;;;;;;;;;;;;;;16.61;55.51;101068.91;5066935;28;1122;-64
2023/09/13 03:00:56;;;;;;;;;;;;;;;16.47;55.48;101065.00;5054134;28;1250;-64
2023/09/13 03:03:23;;;;;;;;;;;;;;;16.38;55.26;101070.13;5041531;28;1201;-59
2023/09/13 03:05:48;;;;;;;;;;;;;;;16.29;54.68;101072.56;5053535;28;1091;-61
2023/09/13 03:08:14;;;;;;;;;;;;;;;16.25;54.69;101076.91;5060370;28;1955;-62
2023/09/13 03:10:39;;;;;;;;;;;;;;;16.20;54.47;101072.22;5052847;28;1896;-62
2023/09/13 03:13:06;;;;;;;;;;;;;;;16.11;54.33;101073.81;5040657;28;1217;-63
2023/09/13 03:15:32;;;;;;;;;;;;;;;16.74;55.70;101068.41;5066637;28;1135;-62
2023/09/13 03:17:57;;;;;;;;;;;;;;;17.30;55.31;101075.25;5064033;28;1835;-63
2023/09/13 03:20:23;;;;;;;;;;;;;;;16.82;55.90;101074.50;5060221;28;1303;-61
2023/09/13 03:22:48;;;;;;;;;;;;;;;16.56;55.62;101077.09;5046861;28;1118;-59
2023/09/13 03:25:14;;;;;;;;;;;;;;;16.42;55.44;101074.84;5060350;28;1340;-61
2023/09/13 03:27:40;;;;;;;;;;;;;;;16.40;54.82;101078.94;5047250;28;1968;-58
2023/09/13 03:30:06;;;;;;;;;;;;;;;16.33;54.48;101072.88;5044812;28;1228;-60
2023/09/13 03:32:33;;;;;;;;;;;;;;;16.41;55.89;101081.44;5054697;28;1206;-60
2023/09/13 03:34:59;;;;;;;;;;;;;;;17.55;55.22;101087.41;5052730;28;1158;-59
2023/09/13 03:37:26;;;;;;;;;;;;;;;16.93;55.97;101077.03;5046434;28;1225;-60
2023/09/13 03:39:51;;;;;;;;;;;;;;;16.70;55.54;101081.03;5059952;28;1165;-60
2023/09/13 03:42:17;;;;;;;;;;;;;;;16.55;55.21;101081.78;5061392;28;879;-61
2023/09/13 03:44:43;;;;;;;;;;;;;;;16.47;55.12;101084.22;5053613;28;1176;-62
2023/09/13 03:47:08;;;;;;;;;;;;;;;16.37;54.96;101079.50;5057561;28;2381;-64
2023/09/13 03:49:34;;;;;;;;;;;;;;;16.29;54.89;101088.22;5042263;28;1139;-61
2023/09/13 03:52:01;;;;;;;;;;;;;;;16.22;54.41;101085.69;5068021;28;1073;-58
2023/09/13 03:54:27;;;;;;;;;;;;;;;16.21;54.38;101086.78;5046393;28;1118;-57
2023/09/13 03:56:53;;;;;;;;;;;;;;;16.15;54.85;101088.66;5060198;28;1193;-57
2023/09/13 03:59:18;;;;;;;;;;;;;;;17.32;55.72;101089.56;5078050;28;1186;-57
2023/09/13 04:01:44;;;;;;;;;;;;;;;16.99;56.02;101086.13;5046564;28;1106;-59
2023/09/13 04:04:10;;;;;;;;;;;;;;;16.63;55.95;101087.84;5059186;28;1604;-60
2023/09/13 04:06:35;;;;;;;;;;;;;;;16.50;55.53;101092.72;5041789;28;1957;-59
2023/09/13 04:09:01;;;;;;;;;;;;;;;16.41;55.22;101092.41;5040149;28;1263;-59
2023/09/13 04:11:28;;;;;;;;;;;;;;;16.47;54.49;101090.53;5075965;28;1058;-61
2023/09/13 04:13:54;;;;;;;;;;;;;;;16.22;54.67;101086.50;5065971;28;1023;-60
2023/09/13 04:16:19;;;;;;;;;;;;;;;17.19;55.89;101084.56;5052382;28;2167;-62
2023/09/13 04:18:45;;;;;;;;;;;;;;;17.07;55.96;101093.88;5071729;28;1855;-62
2023/09/13 04:21:10;;;;;;;;;;;;;;;16.69;55.97;101092.28;5064147;28;1281;-59
2023/09/13 04:23:36;;;;;;;;;;;;;;;16.62;55.64;101097.19;5059290;28;1296;-60
2023/09/13 04:26:02;;;;;;;;;;;;;;;16.46;55.11;101096.28;5045525;28;1201;-60
2023/09/13 04:28:29;;;;;;;;;;;;;;;16.39;55.23;101093.75;5047286;28;2333;-60
2023/09/13 04:30:57;;;;;;;;;;;;;;;16.43;54.64;101098.44;5075398;28;1040;-61
2023/09/13 04:33:43;;;;;;;;;;;;;;;16.24;54.72;101097.22;5064460;28;1125;-62
2023/09/13 04:36:08;;;;;;;;;;;;;;;16.23;54.71;101101.06;5065166;28;1084;-61
2023/09/13 04:38:34;;;;;;;;;;;;;;;16.92;55.94;101099.28;5048195;28;1027;-61
2023/09/13 04:41:00;;;;;;;;;;;;;;;16.88;56.60;101100.88;5060358;28;1210;-60
2023/09/13 04:43:25;;;;;;;;;;;;;;;17.30;56.66;101099.97;5056520;28;1266;-60
2023/09/13 04:45:52;;;;;;;;;;;;;;;16.56;55.56;101104.56;5063681;28;1304;-61
2023/09/13 04:48:17;;;;;;;;;;;;;;;16.46;53.30;101101.75;5052146;28;2434;-61
2023/09/13 04:50:43;;;;;;;;;;;;;;;16.30;51.64;101096.19;5058338;28;1316;-61
2023/09/13 04:53:08;;;;;;;;;;;;;;;16.28;50.33;101100.28;5061582;28;1277;-60
2023/09/13 04:55:34;;;;;;;;;;;;;;;16.14;49.81;101094.41;5055152;28;1225;-60
2023/09/13 04:58:00;;;;;;;;;;;;;;;16.13;49.46;101090.00;5052589;28;1277;-61
2023/09/13 05:00:26;;;;;;;;;;;;;;;15.90;49.31;101092.84;5064350;28;1289;-61
2023/09/13 05:02:52;;;;;;;;;;;;;;;16.03;48.58;101094.34;5055322;28;1353;-60
2023/09/13 05:05:18;;;;;;;;;;;;;;;16.54;50.01;101098.53;5062495;28;1201;-60
2023/09/13 05:07:43;;;;;;;;;;;;;;;16.61;51.33;101099.13;5060388;28;1916;-60
2023/09/13 05:10:09;;;;;;;;;;;;;;;16.34;50.73;101101.94;5071640;28;1241;-60
2023/09/13 05:12:34;;;;;;;;;;;;;;;17.54;52.47;101102.22;5064690;28;1102;-60
2023/09/13 05:15:00;;;;;;;;;;;;;;;16.76;52.15;101104.69;5074519;28;1125;-60
2023/09/13 05:17:25;;;;;;;;;;;;;;;16.66;50.66;101109.28;5063369;28;2235;-60
2023/09/13 05:19:51;;;;;;;;;;;;;;;16.50;49.63;101106.44;5075026;28;1047;-60
2023/09/13 05:22:17;;;;;;;;;;;;;;;16.45;48.80;101109.16;5065767;28;1269;-59
2023/09/13 05:24:42;;;;;;;;;;;;;;;16.27;48.52;101107.69;5062636;28;1102;-59
2023/09/13 05:27:08;;;;;;;;;;;;;;;17.20;50.57;101110.94;5063098;28;1914;-59
2023/09/13 05:29:33;;;;;;;;;;;;;;;16.81;50.24;101114.03;5059256;28;1007;-59
2023/09/13 05:31:59;;;;;;;;;;;;;;;16.64;49.53;101111.47;5076127;28;1070;-59
2023/09/13 05:34:25;;;;;;;;;;;;;;;16.50;48.58;101119.38;5062132;28;1132;-59
2023/09/13 05:36:50;;;;;;;;;;;;;;;16.37;48.30;101117.91;5068948;28;1010;-59
2023/09/13 05:39:16;;;;;;;;;;;;;;;16.42;47.65;101110.53;5071826;28;1007;-59
2023/09/13 05:41:42;;;;;;;;;;;;;;;16.48;47.18;101127.88;5061367;28;1433;-59
2023/09/13 05:44:09;;;;;;;;;;;;;;;16.31;47.33;101125.25;5064139;28;1280;-59
2023/09/13 05:46:35;;;;;;;;;;;;;;;16.32;46.92;101124.16;5068837;28;1906;-59
2023/09/13 05:49:00;;;;;;;;;;;;;;;16.34;46.72;101123.91;5067413;28;2740;-59
2023/09/13 05:51:26;;;;;;;;;;;;;;;17.16;49.13;101127.13;5062010;28;1187;-57
2023/09/13 05:53:51;;;;;;;;;;;;;;;16.69;49.22;101131.56;5070981;28;1011;-59
2023/09/13 05:56:17;;;;;;;;;;;;;;;16.50;48.56;101127.59;5060684;28;1135;-59
2023/09/13 05:58:43;;;;;;;;;;;;;;;16.45;48.04;101133.03;5075834;28;1026;-59
2023/09/13 06:01:09;;;;;;;;;;;;;;;16.42;47.57;101123.41;5061949;28;1089;-59
2023/09/13 06:03:34;;;;;;;;;;;;;;;16.46;46.93;101126.47;5063833;28;1232;-60
2023/09/13 06:06:00;;;;;;;;;;;;;;;17.06;48.71;101125.16;5069082;28;1111;-59
2023/09/13 06:08:25;;;;;;;;;;;;;;;16.63;48.80;101129.84;5067015;28;1910;-60
2023/09/13 06:10:51;;;;;;;;;;;;;;;16.53;48.17;101127.88;5062122;28;1069;-60
2023/09/13 06:13:16;;;;;;;;;;;;;;;17.39;48.89;101134.09;5064785;28;1034;-60
2023/09/13 06:15:42;;;;;;;;;;;;;;;16.92;49.36;101124.03;5061873;28;1538;-60
2023/09/13 06:18:07;;;;;;;;;;;;;;;16.71;48.52;101129.38;5061919;28;1820;-60
2023/09/13 06:20:33;;;;;;;;;;;;;;;16.57;48.22;101137.25;5075120;28;1115;-60
2023/09/13 06:22:58;;;;;;;;;;;;;;;16.55;47.62;101135.84;5074002;28;1178;-60
2023/09/13 06:25:24;;;;;;;;;;;;;;;16.55;47.29;101136.69;5076398;28;1065;-60
2023/09/13 06:27:49;;;;;;;;;;;;;;;16.53;47.24;101140.78;5073905;28;1910;-61
2023/09/13 06:30:15;;;;;;;;;;;;;;;16.52;47.08;101137.22;5081537;28;1094;-60
2023/09/13 06:32:40;;;;;;;;;;;;;;;16.39;46.95;101138.47;5082174;28;1135;-61
2023/09/13 06:35:08;;;;;;;;;;;;;;;17.19;47.79;101145.00;5080124;28;1193;-61
2023/09/13 06:37:33;;;;;;;;;;;;;;;16.91;48.86;101141.59;5066760;28;1198;-60
2023/09/13 06:39:59;;;;;;;;;;;;;;;16.66;48.37;101151.31;5043869;28;1079;-60
2023/09/13 06:42:24;;;;;;;;;;;;;;;16.58;47.84;101143.56;5067132;28;1023;-60
2023/09/13 06:44:50;;;;;;;;;;;;;;;16.84;48.16;101154.69;5073463;28;1073;-60
2023/09/13 06:47:15;;;;;;;;;;;;;;;17.23;49.12;101148.88;5076742;28;2548;-60
2023/09/13 06:49:41;;;;;;;;;;;;;;;16.88;49.03;101151.19;5073103;28;988;-61
2023/09/13 06:52:06;;;;;;;;;;;;;;;16.76;48.40;101148.63;5076696;28;1225;-62
2023/09/13 06:54:32;;;;;;;;;;;;;;;16.82;47.64;101144.00;5062088;28;1055;-60
2023/09/13 06:56:57;;;;;;;;;;;;;;;16.67;47.56;101155.69;5074507;28;1043;-61
2023/09/13 06:59:23;;;;;;;;;;;;;;;16.69;47.14;101147.19;5081499;28;1054;-61
2023/09/13 07:01:48;;;;;;;;;;;;;;;16.68;46.95;101151.88;5069441;28;1057;-62
2023/09/13 07:04:16;;;;;;;;;;;;;;;16.64;47.06;101147.19;5068039;28;1091;-60
2023/09/13 07:06:41;;;;;;;;;;;;;;;16.50;46.80;101146.81;5075292;28;1989;-61
2023/09/13 07:09:07;;;;;;;;;;;;;;;16.53;46.79;101144.34;5067323;28;1011;-62
2023/09/13 07:11:32;;;;;;;;;;;;;;;16.67;47.06;101152.13;5069269;28;1023;-57
2023/09/13 07:13:59;;;;;;;;;;;;;;;17.21;48.80;101149.16;5062615;28;1122;-59
2023/09/13 07:16:25;;;;;;;;;;;;;;;16.84;48.68;101138.22;5074838;28;1056;-58
2023/09/13 07:18:50;;;;;;;;;;;;;;;16.76;48.17;101150.56;5056341;28;2500;-59
2023/09/13 07:21:16;;;;;;;;;;;;;;;16.76;47.64;101150.56;5074648;28;1119;-57
2023/09/13 07:23:41;;;;;;;;;;;;;;;16.67;47.40;101150.19;5081010;28;1251;-57
2023/09/13 07:26:07;;;;;;;;;;;;;;;16.56;47.30;101148.50;5065505;28;1142;-57
2023/09/13 07:28:33;;;;;;;;;;;;;;;16.58;47.27;101146.31;5077948;28;1982;-56
2023/09/13 07:30:58;;;;;;;;;;;;;;;16.53;47.07;101144.34;5070057;28;980;-56
2023/09/13 07:33:25;;;;;;;;;;;;;;;16.56;46.71;101148.50;5077234;28;1075;-56
2023/09/13 07:35:50;;;;;;;;;;;;;;;17.16;48.37;101157.38;5066140;28;1127;-58
2023/09/13 07:38:16;;;;;;;;;;;;;;;16.80;48.23;101159.88;5058637;28;1054;-57
2023/09/13 07:40:41;;;;;;;;;;;;;;;16.79;47.62;101162.91;5061754;28;1052;-58
2023/09/13 07:43:09;;;;;;;;;;;;;;;16.73;47.42;101154.66;5075233;28;1122;-58
2023/09/13 07:45:35;;;;;;;;;;;;;;;16.62;47.22;101152.94;5072929;28;1035;-59
2023/09/13 07:48:02;;;;;;;;;;;;;;;16.68;46.97;101164.78;5069596;28;2371;-59
2023/09/13 07:50:32;;;;;;;;;;;;;;;16.70;46.48;101155.16;5072881;28;1144;-59
2023/09/13 07:52:57;;;;;;;;;;;;;;;16.57;46.51;101155.66;5062611;28;1264;-57
2023/09/13 07:55:23;;;;;;;;;;;;;;;16.58;46.44;101144.38;5076190;28;1074;-57
2023/09/13 07:57:48;;;;;;;;;;;;;;;16.54;46.36;101147.94;5070683;28;1198;-58
2023/09/13 08:00:14;;;;;;;;;;;;;;;16.51;46.63;101151.19;5069053;28;1008;-58
2023/09/13 08:02:41;;;;;;;;;;;;;;;16.51;46.39;101154.78;5059455;28;1038;-58
2023/09/13 08:05:07;;;;;;;;;;;;;;;16.42;46.66;101154.44;5068366;28;1225;-58
2023/09/13 08:07:32;;;;;;;;;;;;;;;17.03;48.20;101158.69;5069932;28;1909;-57
2023/09/13 08:09:58;;;;;;;;;;;;;;;16.75;48.21;101143.41;5068171;28;1091;-58
2023/09/13 08:12:23;;;;;;;;;;;;;;;16.72;47.85;101149.44;5074132;28;1170;-56
2023/09/13 08:14:49;;;;;;;;;;;;;;;16.63;47.54;101142.78;5076625;28;1023;-60
2023/09/13 08:17:14;;;;;;;;;;;;;;;16.81;47.41;101147.81;5061678;28;2398;-62
2023/09/13 08:19:40;;;;;;;;;;;;;;;17.06;48.65;101140.84;5063131;28;1203;-61
2023/09/13 08:22:08;;;;;;;;;;;;;;;16.89;48.24;101146.53;5063420;28;1229;-58
2023/09/13 08:24:33;;;;;;;;;;;;;;;16.82;48.02;101140.44;5068937;28;1030;-57
2023/09/13 08:26:59;;;;;;;;;;;;;;;16.82;47.17;101137.69;5071994;28;1973;-58
2023/09/13 08:29:24;;;;;;;;;;;;;;;17.15;48.12;101130.97;5077057;28;1018;-60
2023/09/13 08:31:50;;;;;;;;;;;;;;;17.18;48.77;101137.84;5063948;28;1113;-60
2023/09/13 08:34:15;;;;;;;;;;;;;;;16.97;48.35;101139.69;5069243;28;1086;-56
2023/09/13 08:36:41;;;;;;;;;;;;;;;16.90;47.99;101142.66;5066259;28;1136;-58
2023/09/13 08:39:06;;;;;;;;;;;;;;;16.84;47.44;101133.53;5058230;28;1210;-58
2023/09/13 08:41:33;;;;;;;;;;;;;;;16.79;47.42;101130.78;5068187;28;1154;-60
2023/09/13 08:44:00;;;;;;;;;;;;;;;16.71;47.29;101134.84;5061646;28;1037;-59
2023/09/13 08:46:26;;;;;;;;;;;;;;;16.85;47.31;101129.72;5063098;28;1296;-59
2023/09/13 08:48:51;;;;;;;;;;;;;;;17.30;48.69;101129.41;5067474;28;2411;-58
2023/09/13 08:51:17;;;;;;;;;;;;;;;16.93;48.48;101123.75;5051100;28;1104;-59
2023/09/13 08:53:42;;;;;;;;;;;;;;;16.97;47.86;101124.06;5063794;28;1189;-59
2023/09/13 08:56:08;;;;;;;;;;;;;;;16.80;47.62;101123.38;5055530;28;1241;-59
2023/09/13 08:58:35;;;;;;;;;;;;;;;16.86;47.17;101125.06;5055239;28;1339;-60
2023/09/13 09:01:01;;;;;;;;;;;;;;;16.72;47.12;101127.47;5055792;28;1285;-60
2023/09/13 09:03:26;;;;;;;;;;;;;;;16.76;47.04;101123.91;5056827;28;1289;-60
2023/09/13 09:05:52;;;;;;;;;;;;;;;16.67;46.96;101133.72;5055540;28;1285;-61
2023/09/13 09:08:18;;;;;;;;;;;;;;;16.59;47.08;101129.59;5058258;28;1906;-60
2023/09/13 09:10:43;;;;;;;;;;;;;;;16.63;46.86;101132.59;5046204;28;999;-58
2023/09/13 09:13:10;;;;;;;;;;;;;;;16.77;46.40;101125.56;5052238;28;1056;-57
2023/09/13 09:15:35;;;;;;;;;;;;;;;16.70;46.69;101127.69;5045264;28;1055;-59
2023/09/13 09:18:02;;;;;;;;;;;;;;;16.73;46.41;101126.34;5052355;28;2281;-58
2023/09/13 09:20:28;;;;;;;;;;;;;;;17.07;47.41;101126.03;5054206;28;1273;-58
2023/09/13 09:22:59;;;;;;;;;;;;;;;17.07;48.60;101110.34;5064287;28;1026;-59
2023/09/13 09:25:25;;;;;;;;;;;;;;;16.94;47.98;101116.31;5060165;28;1213;-58
2023/09/13 09:27:51;;;;;;;;;;;;;;;16.95;47.62;101117.97;5065286;28;1971;-58
2023/09/13 09:30:16;;;;;;;;;;;;;;;16.86;47.43;101122.31;5061549;28;1256;-60
2023/09/13 09:32:43;;;;;;;;;;;;;;;16.71;47.37;101118.38;5067600;28;1304;-61
2023/09/13 09:35:09;;;;;;;;;;;;;;;16.74;46.99;101117.03;5059657;28;1142;-62
2023/09/13 09:37:34;;;;;;;;;;;;;;;16.67;46.75;101111.75;5070957;28;1202;-59
2023/09/13 09:40:00;;;;;;;;;;;;;;;16.71;46.71;101112.06;5058479;28;1178;-58
2023/09/13 09:42:26;;;;;;;;;;;;;;;16.77;46.46;101116.47;5061624;28;1245;-58
2023/09/13 09:44:51;;;;;;;;;;;;;;;16.65;46.66;101115.88;5054820;28;1237;-60
2023/09/13 09:47:17;;;;;;;;;;;;;;;16.71;46.57;101107.41;5063411;28;2420;-62
2023/09/13 09:49:43;;;;;;;;;;;;;;;16.64;46.63;101115.06;5058087;28;1092;-59
2023/09/13 09:52:08;;;;;;;;;;;;;;;16.60;46.61;101100.19;5060507;28;1440;-61
2023/09/13 09:54:34;;;;;;;;;;;;;;;16.67;46.36;101110.94;5057530;28;1175;-60
2023/09/13 09:56:59;;;;;;;;;;;;;;;16.62;46.39;101116.41;5061264;28;1186;-58
2023/09/13 09:59:28;;;;;;;;;;;;;;;16.61;46.35;101107.34;5063018;28;1199;-58
2023/09/13 10:01:57;;;;;;;;;;;;;;;16.65;46.44;101110.38;5063785;28;1238;-59
2023/09/13 10:04:23;;;;;;;;;;;;;;;16.59;46.41;101110.38;5061544;28;1091;-60
2023/09/13 10:06:59;;;;;;;;;;;;;;;17.21;47.78;101115.34;5062625;28;1921;-62
2023/09/13 10:09:35;;;;;;;;;;;;;;;17.01;47.94;101114.19;5065395;28;1056;-64
2023/09/13 10:12:01;;;;;;;;;;;;;;;16.83;47.75;101114.59;5065734;28;1233;-61
2023/09/13 10:14:27;;;;;;;;;;;;;;;16.72;47.54;101106.31;5058348;28;1268;-62
2023/09/13 10:16:55;;;;;;;;;;;;;;;16.87;47.57;101111.06;5062751;28;1058;-61
2023/09/13 10:19:22;;;;;;;;;;;;;;;17.22;48.56;101112.34;5053750;28;2561;-61
2023/09/13 10:21:47;;;;;;;;;;;;;;;17.05;48.24;101111.72;5055215;28;1040;-61
2023/09/13 10:24:13;;;;;;;;;;;;;;;16.96;47.69;101103.16;5065660;28;1051;-60
2023/09/13 10:26:38;;;;;;;;;;;;;;;16.91;47.41;101108.63;5054559;28;987;-61
2023/09/13 10:29:07;;;;;;;;;;;;;;;16.90;46.96;101109.72;5053861;28;1245;-60
2023/09/13 10:31:34;;;;;;;;;;;;;;;16.95;46.56;101112.50;5061989;28;1101;-59
2023/09/13 10:34:01;;;;;;;;;;;;;;;16.82;46.77;101115.72;5075510;28;1170;-59
2023/09/13 10:36:27;;;;;;;;;;;;;;;16.86;46.88;101114.09;5052611;28;1134;-61
2023/09/13 10:39:02;;;;;;;;;;;;;;;17.50;48.09;101120.38;5061860;28;1078;-59
2023/09/13 10:41:29;;;;;;;;;;;;;;;17.12;48.29;101122.47;5063481;28;1038;-60
2023/09/13 10:43:54;;;;;;;;;;;;;;;17.00;47.63;101112.53;5061567;28;1074;-60
2023/09/13 10:46:20;;;;;;;;;;;;;;;16.96;47.39;101118.81;5049931;28;1039;-63
2023/09/13 10:48:45;;;;;;;;;;;;;;;16.98;47.04;101114.69;5070055;28;2580;-63
2023/09/13 10:51:11;;;;;;;;;;;;;;;16.91;47.00;101112.22;5075664;28;1010;-63
2023/09/13 10:53:36;;;;;;;;;;;;;;;16.89;46.50;101102.59;5043664;28;1203;-63
2023/09/13 10:56:02;;;;;;;;;;;;;;;16.89;46.62;101102.59;5052778;28;1055;-60
2023/09/13 10:58:27;;;;;;;;;;;;;;;16.74;46.52;101101.38;5060963;28;1114;-60
2023/09/13 11:00:54;;;;;;;;;;;;;;;16.79;46.65;101106.06;5039886;28;1058;-59
2023/09/13 11:03:20;;;;;;;;;;;;;;;17.53;47.48;101108.81;5055570;28;1040;-61
2023/09/13 11:05:47;;;;;;;;;;;;;;;17.37;48.74;101100.53;5078526;28;1096;-61
2023/09/13 11:08:31;;;;;;;;;;;;;;;17.17;48.28;101100.50;5066543;28;1914;-60
2023/09/13 11:11:07;;;;;;;;;;;;;;;17.09;47.36;101104.56;5063237;28;1235;-59
2023/09/13 11:13:32;;;;;;;;;;;;;;;17.02;47.16;101093.00;5061770;28;1199;-59
2023/09/13 11:16:01;;;;;;;;;;;;;;;16.95;47.08;101085.03;5061804;28;1308;-59
2023/09/13 11:18:27;;;;;;;;;;;;;;;16.91;46.91;101094.88;5069201;28;2375;-59
2023/09/13 11:20:53;;;;;;;;;;;;;;;16.85;46.93;101082.22;5065215;28;1249;-60
2023/09/13 11:23:19;;;;;;;;;;;;;;;16.98;46.35;101084.47;5068564;28;1239;-61
2023/09/13 11:25:54;;;;;;;;;;;;;;;16.88;46.50;101085.25;5061272;28;1198;-58
2023/09/13 11:28:29;;;;;;;;;;;;;;;16.85;46.52;101084.94;5065949;28;1983;-60
2023/09/13 11:31:02;;;;;;;;;;;;;;;16.89;46.34;101078.69;5062984;28;1419;-61
2023/09/13 11:33:30;;;;;;;;;;;;;;;16.78;46.36;101074.22;5065972;28;1104;-60
2023/09/13 11:35:59;;;;;;;;;;;;;;;17.60;47.50;101065.41;5065420;28;1257;-60
2023/09/13 11:38:25;;;;;;;;;;;;;;;17.19;48.12;101079.88;5069877;28;1190;-56
2023/09/13 11:40:52;;;;;;;;;;;;;;;17.08;47.33;101078.19;5064343;28;1139;-57
2023/09/13 11:43:21;;;;;;;;;;;;;;;16.95;47.65;101085.03;5078253;28;999;-58
2023/09/13 11:45:50;;;;;;;;;;;;;;;16.94;47.10;101072.38;5068706;28;1010;-58
2023/09/13 11:48:19;;;;;;;;;;;;;;;17.00;46.92;101071.31;5062321;28;2406;-57
2023/09/13 11:50:47;;;;;;;;;;;;;;;17.00;46.39;101073.22;5066052;28;1260;-57
2023/09/13 11:53:14;;;;;;;;;;;;;;;16.85;46.97;101079.47;5072697;28;1085;-58
2023/09/13 11:56:08;;;;;;;;;;;;;;;16.91;46.54;101078.41;5058716;28;1000;-58
2023/09/13 11:58:36;;;;;;;;;;;;;;;16.89;46.59;101078.69;5053767;28;1293;-57
2023/09/13 12:01:03;;;;;;;;;;;;;;;16.85;46.58;101079.47;5063841;28;1050;-57
2023/09/13 12:03:29;;;;;;;;;;;;;;;16.88;46.23;101078.91;5068559;28;1114;-57
2023/09/13 12:05:55;;;;;;;;;;;;;;;16.80;46.42;101077.50;5073643;28;1138;-58
2023/09/13 12:08:27;;;;;;;;;;;;;;;16.80;46.38;101077.50;5069186;28;1909;-58
2023/09/13 12:10:54;;;;;;;;;;;;;;;17.64;47.74;101080.25;5077890;28;1135;-58
2023/09/13 12:13:19;;;;;;;;;;;;;;;17.13;48.15;101074.66;5066979;28;1071;-58
2023/09/13 12:16:00;;;;;;;;;;;;;;;17.13;47.47;101077.41;5057877;28;1388;-58
2023/09/13 12:18:26;;;;;;;;;;;;;;;16.99;47.30;101077.91;5057514;28;1780;-58
2023/09/13 12:20:54;;;;;;;;;;;;;;;16.94;46.98;101086.09;5075021;28;1149;-58
2023/09/13 12:23:20;;;;;;;;;;;;;;;16.91;46.85;101071.00;5064511;28;1071;-57
2023/09/13 12:25:46;;;;;;;;;;;;;;;16.94;46.56;101077.88;5066827;28;1245;-58
2023/09/13 12:28:11;;;;;;;;;;;;;;;16.84;46.56;101066.81;5056946;28;1982;-57
2023/09/13 12:30:37;;;;;;;;;;;;;;;16.98;46.24;101068.00;5059816;28;1143;-57
2023/09/13 12:33:03;;;;;;;;;;;;;;;16.98;45.92;101072.66;5072198;28;1379;-57
2023/09/13 12:35:29;;;;;;;;;;;;;;;16.88;46.27;101067.94;5066376;28;1106;-57
2023/09/13 12:37:55;;;;;;;;;;;;;;;16.74;46.41;101062.09;5076616;28;1134;-58
2023/09/13 12:40:21;;;;;;;;;;;;;;;16.83;46.01;101070.66;5075642;28;1340;-57
2023/09/13 12:42:47;;;;;;;;;;;;;;;17.36;47.40;101076.91;5058369;28;1381;-57